Aeroporto :
LOGIN :

Iscrizione | Disclaimer

   EN    FR    IT 

 










Sommario :    VFR   VFR Marginale   IFR   IFR Intensivo   IFR Molto Intensivo
Visibilità : 
Base nubi : 
>= 8 km
>= 3000ft
5 / 8 km
1000 / 3000 ft
1500m / 5 km
500 / 1000 ft
800 / 1500m
200 / 500 ft
< 800m
< 200 ft
Simboli :   Temporali  Nebbia  Neve Forte  Precipitazioni Forti  Vento > 20 kt
SIGMETs :   Varie  Temporali  Ghiacco  Turbolenza  Onda orograficha  Ceneri Vulcaniche






- Altitudine del aeroporto : 235 ft
- Codice IATA : BZG


EPBY - Bydgoszcz

ULTIMO METAR :
  • 240400Z 26009KT 9999 OVC014 02/M01 Q1022

METARs OBSOLETI :
  • 240330Z 26012KT 9999 OVC014 02/M01 Q1022
  • 240300Z 26010KT 230V290 9999 OVC014 02/M01 Q1022
  • 240230Z 26011KT 9999 OVC013 02/M01 Q1023
  • 240200Z 26009KT 9999 OVC013 02/M00 Q1023
  • 240130Z 26011KT 9999 OVC013 02/M00 Q1024

TAF TAF EPBY
Valido dal 24 a 00 ore il 25 a 00 ore UTC


232330Z 2400/2424 27012KT 9999 OVC012
PROB40
TEMPO 2402/2408 4000 BR OVC005
BECMG 2408/2410 22012KT BKN020
PROB30 2418/2424 BKN004 OVC008



MetMap, La meteo Aeronautica in un colpo d'occhio ! - Copyright ORBIFLY Dicembre 2007 - Disclaimer

ORBIFLY MET'MAP TEAM :

Programmazione e sviluppo : Alexandra Zaïnal
Concezione : Baudouin d'Aumeries
Aiuto per la programmazione : Marc-Olivier Méhu
Supporto tecnico e logistico : Manuel Goepfert
Aiuto per la traduzione : Arnaldo La Scala

Contatto : metmap@orbifly.com




FONTI E CREDITI :

   NOAA